Imst, Austria
Current Conditions -  °F | °C
As of 10:20 PM on Friday 28 Nov 2014 (Local Time) from LOWI Reporting Station
Scattered Clouds Scattered Clouds  
Wind Chill: 39°   Ceiling: Unl
Heat Index: 45°   Visibility: 6mi
Dew Point: 39°   Wind: 12mph
Humidity: 81%   Direction: 260°W
Pressure: 29.88"   Gusts: NA
Location:  47.25°N, 10.73°E
Report Text: LOWI 282020Z 26010KT 210V290 9999 FEW060 SCT250 07/04 Q1012 WS R26 NOSIG
Loading
Personal Weather Stations






























Interactive Weather Map New forecast layout! Learn more

10-Day Weather Forecast

Advertisements
Track Severe Weather on mobile